createdAt,value
2023-03-19T00:00:12.751Z,3.50
2023-03-19T00:01:12.741Z,3.20
2023-03-19T00:02:17.920Z,3.30
2023-03-19T00:03:13.749Z,3.50
2023-03-19T00:04:12.687Z,3.50
2023-03-19T00:05:12.674Z,3.30
2023-03-19T00:06:12.671Z,2.90
2023-03-19T00:07:12.678Z,3.80
2023-03-19T00:08:12.682Z,3.20
2023-03-19T00:09:12.631Z,3.60
2023-03-19T00:10:12.631Z,3.20
2023-03-19T00:11:12.609Z,4.70
2023-03-19T00:12:12.608Z,3.30
2023-03-19T00:13:12.625Z,3.80
2023-03-19T00:14:12.610Z,4.00
2023-03-19T00:15:12.570Z,3.90
2023-03-19T00:16:12.692Z,4.00
2023-03-19T00:17:12.548Z,4.60
2023-03-19T00:18:12.538Z,4.00
2023-03-19T00:19:12.556Z,4.40
2023-03-19T00:20:12.574Z,4.20
2023-03-19T00:21:12.505Z,3.70
2023-03-19T00:22:12.501Z,4.60
2023-03-19T00:23:12.494Z,4.10
2023-03-19T00:24:12.475Z,4.40
2023-03-19T00:25:12.518Z,4.80
2023-03-19T00:26:12.468Z,4.60
2023-03-19T00:27:12.442Z,4.10
2023-03-19T00:28:12.434Z,5.50
2023-03-19T00:29:12.432Z,4.30
2023-03-19T00:30:12.422Z,4.30
2023-03-19T00:31:12.516Z,4.40
2023-03-19T00:32:12.417Z,4.40
2023-03-19T00:33:12.522Z,5.60
2023-03-19T00:34:12.384Z,4.80
2023-03-19T00:35:12.352Z,5.30
2023-03-19T00:36:12.384Z,4.40
2023-03-19T00:37:12.359Z,4.40
2023-03-19T00:38:12.326Z,4.30
2023-03-19T00:39:12.310Z,4.50
2023-03-19T00:40:12.326Z,4.60
2023-03-19T00:41:12.314Z,4.30
2023-03-19T00:42:12.291Z,4.30
2023-03-19T00:43:12.308Z,4.30
2023-03-19T00:44:12.258Z,4.30
2023-03-19T00:45:12.263Z,4.40
2023-03-19T00:46:12.267Z,4.10
2023-03-19T00:47:12.229Z,4.60
2023-03-19T00:48:12.239Z,5.10
2023-03-19T00:49:12.228Z,4.90
2023-03-19T00:50:12.205Z,5.20
2023-03-19T00:51:12.185Z,5.20
2023-03-19T00:52:12.170Z,5.00
2023-03-19T00:53:12.186Z,4.50
2023-03-19T00:54:12.153Z,5.50
2023-03-19T00:55:12.176Z,6.00
2023-03-19T00:56:12.131Z,5.90
2023-03-19T00:57:12.136Z,4.80
2023-03-19T00:58:12.141Z,5.60
2023-03-19T00:59:12.132Z,5.20
2023-03-19T01:00:12.101Z,5.30
2023-03-19T01:01:12.139Z,5.70
2023-03-19T01:02:12.109Z,6.80
2023-03-19T01:03:12.068Z,5.60
2023-03-19T01:04:12.150Z,6.50
2023-03-19T01:05:12.060Z,5.60
2023-03-19T01:06:12.059Z,5.70
2023-03-19T01:07:12.053Z,5.30
2023-03-19T01:08:11.991Z,6.60
2023-03-19T01:09:11.999Z,5.70
2023-03-19T01:10:11.974Z,7.00
2023-03-19T01:11:11.964Z,5.70
2023-03-19T01:12:11.948Z,5.30
2023-03-19T01:13:11.961Z,5.80
2023-03-19T01:14:11.945Z,5.80
2023-03-19T01:15:11.944Z,5.40
2023-03-19T01:16:11.917Z,5.60
2023-03-19T01:17:11.907Z,5.30
2023-03-19T01:18:11.890Z,5.70
2023-03-19T01:19:11.918Z,5.50
2023-03-19T01:20:11.886Z,5.40
2023-03-19T01:21:11.855Z,6.00
2023-03-19T01:22:11.845Z,5.60
2023-03-19T01:27:53.133Z,4.50
2023-03-19T01:28:53.097Z,5.40
2023-03-19T01:29:53.085Z,4.80
2023-03-19T01:30:53.168Z,5.00
2023-03-19T01:31:53.062Z,4.90
2023-03-19T01:32:53.114Z,5.00
2023-03-19T01:33:53.056Z,4.90
2023-03-19T01:34:53.049Z,4.40
2023-03-19T01:35:53.116Z,4.90
2023-03-19T01:36:53.015Z,4.50
2023-03-19T01:37:53.021Z,4.40
2023-03-19T01:38:53.006Z,4.60
2023-03-19T01:39:52.975Z,5.10
2023-03-19T01:40:52.969Z,4.90
2023-03-19T01:41:52.965Z,4.30
2023-03-19T01:42:52.981Z,4.90
2023-03-19T01:43:52.932Z,4.80
2023-03-19T01:44:52.939Z,4.80
2023-03-19T01:45:52.924Z,4.80
2023-03-19T01:46:52.903Z,4.70
2023-03-19T01:47:52.892Z,5.00
2023-03-19T01:48:52.909Z,5.00
2023-03-19T01:49:52.876Z,4.80
2023-03-19T01:50:52.876Z,5.40
2023-03-19T01:51:52.875Z,5.90
2023-03-19T01:52:52.837Z,6.40
2023-03-19T01:53:52.839Z,7.00
2023-03-19T01:54:52.830Z,7.10
2023-03-19T01:55:52.807Z,7.80
2023-03-19T01:56:52.810Z,7.80
2023-03-19T01:57:52.780Z,7.10
2023-03-19T01:58:52.776Z,7.10
2023-03-19T01:59:52.760Z,7.80
2023-03-19T02:00:52.770Z,7.70
2023-03-19T02:01:52.828Z,8.10
2023-03-19T02:02:52.730Z,8.10
2023-03-19T02:03:52.725Z,7.90
2023-03-19T02:04:52.775Z,7.70
2023-03-19T02:05:52.695Z,7.90
2023-03-19T02:06:52.719Z,7.60
2023-03-19T02:07:52.692Z,7.20
2023-03-19T02:08:52.664Z,7.80
2023-03-19T02:09:52.651Z,7.60
2023-03-19T02:10:52.667Z,7.60
2023-03-19T02:11:52.640Z,7.10
2023-03-19T02:12:52.655Z,7.50
2023-03-19T02:13:52.611Z,7.50
2023-03-19T02:14:52.598Z,7.20
2023-03-19T02:15:52.631Z,7.70
2023-03-19T02:16:52.596Z,7.60
2023-03-19T02:17:52.568Z,7.40
2023-03-19T02:18:52.572Z,7.00
2023-03-19T02:19:52.543Z,7.30
2023-03-19T02:20:52.536Z,7.50
2023-03-19T02:21:52.524Z,7.30
2023-03-19T02:22:52.523Z,7.40
2023-03-19T02:23:52.520Z,7.20
2023-03-19T02:24:52.513Z,8.30
2023-03-19T02:25:52.514Z,6.90
2023-03-19T02:26:52.484Z,7.10
2023-03-19T02:27:52.471Z,6.70
2023-03-19T02:28:52.446Z,6.50
2023-03-19T02:29:52.440Z,6.70
2023-03-19T02:30:52.446Z,6.70
2023-03-19T02:31:52.412Z,6.90
2023-03-19T02:32:52.449Z,6.20
2023-03-19T02:33:52.400Z,6.90
2023-03-19T02:34:52.386Z,6.30
2023-03-19T02:35:52.480Z,7.10
2023-03-19T02:36:52.397Z,6.30
2023-03-19T02:37:52.348Z,6.20
2023-03-19T02:38:52.339Z,5.60
2023-03-19T02:39:52.358Z,6.50
2023-03-19T02:40:52.319Z,6.40
2023-03-19T02:41:52.304Z,6.20
2023-03-19T02:42:52.322Z,5.70
2023-03-19T02:43:52.294Z,5.90
2023-03-19T02:44:52.277Z,6.00
2023-03-19T02:45:52.260Z,5.30
2023-03-19T02:46:52.298Z,5.50
2023-03-19T02:47:52.239Z,6.00
2023-03-19T02:48:52.271Z,6.50
2023-03-19T02:49:52.221Z,6.10
2023-03-19T02:50:52.219Z,5.70
2023-03-19T02:51:52.206Z,6.10
2023-03-19T02:52:52.180Z,6.30
2023-03-19T02:53:52.175Z,5.40
2023-03-19T02:54:52.211Z,5.70
2023-03-19T02:55:52.195Z,5.80
2023-03-19T02:56:52.142Z,6.20
2023-03-19T02:57:52.131Z,5.60
2023-03-19T02:58:52.134Z,5.50
2023-03-19T02:59:52.120Z,5.50
2023-03-19T03:00:52.208Z,5.60
2023-03-19T03:01:52.287Z,6.00
2023-03-19T03:02:52.081Z,5.30
2023-03-19T03:03:52.072Z,5.30
2023-03-19T03:04:52.073Z,5.20
2023-03-19T03:05:52.054Z,5.40
2023-03-19T03:06:52.058Z,5.30
2023-03-19T03:07:52.032Z,5.50
2023-03-19T03:08:52.028Z,4.90
2023-03-19T03:09:52.010Z,5.70
2023-03-19T03:10:52.009Z,4.90
2023-03-19T03:11:52.009Z,5.50
2023-03-19T03:12:51.989Z,5.30
2023-03-19T03:13:51.968Z,5.20
2023-03-19T03:14:51.961Z,5.30
2023-03-19T03:15:51.959Z,5.60
2023-03-19T03:16:51.934Z,6.20
2023-03-19T03:17:51.927Z,5.70
2023-03-19T03:18:51.925Z,6.20
2023-03-19T03:19:51.903Z,6.30
2023-03-19T03:20:51.893Z,6.00
2023-03-19T03:21:51.895Z,6.80
2023-03-19T03:22:51.876Z,5.90
2023-03-19T03:23:51.864Z,5.60
2023-03-19T03:24:51.862Z,5.90
2023-03-19T03:25:51.842Z,6.10
2023-03-19T03:26:51.833Z,6.10
2023-03-19T03:27:51.853Z,5.70
2023-03-19T03:28:51.820Z,5.60
2023-03-19T03:29:51.800Z,5.70
2023-03-19T03:30:51.806Z,5.60
2023-03-19T03:31:51.893Z,4.90
2023-03-19T03:32:51.800Z,5.30
2023-03-19T03:33:51.783Z,5.30
2023-03-19T03:34:51.774Z,5.20
2023-03-19T03:35:51.758Z,5.10
2023-03-19T03:36:51.746Z,5.20
2023-03-19T03:37:51.727Z,5.20
2023-03-19T03:38:51.700Z,5.20
2023-03-19T03:39:51.700Z,5.40
2023-03-19T03:40:51.695Z,5.40
2023-03-19T03:41:51.688Z,5.00
2023-03-19T03:42:51.657Z,5.00
2023-03-19T03:43:51.669Z,5.30
2023-03-19T03:44:51.634Z,5.20
2023-03-19T03:45:51.722Z,5.30
2023-03-19T03:46:51.623Z,5.90
2023-03-19T03:47:51.640Z,5.70
2023-03-19T03:48:51.598Z,5.40
2023-03-19T03:49:51.585Z,5.60
2023-03-19T03:50:51.596Z,6.20
2023-03-19T03:51:51.573Z,5.30
2023-03-19T03:52:51.557Z,6.20
2023-03-19T03:53:51.566Z,5.10
2023-03-19T03:54:51.530Z,5.10
2023-03-19T03:55:51.520Z,4.90
2023-03-19T03:56:51.513Z,5.20
2023-03-19T03:57:51.498Z,5.10
2023-03-19T03:58:51.513Z,4.60
2023-03-19T03:59:51.504Z,5.80
2023-03-19T04:00:51.470Z,5.10
2023-03-19T04:01:51.510Z,7.10
2023-03-19T04:02:51.480Z,4.90
2023-03-19T04:03:51.447Z,5.30
2023-03-19T04:04:51.432Z,5.30
2023-03-19T04:05:51.444Z,4.90
2023-03-19T04:06:51.399Z,4.90
2023-03-19T04:07:51.393Z,4.90
2023-03-19T04:08:51.377Z,6.40
2023-03-19T04:09:51.369Z,5.20
2023-03-19T04:10:51.370Z,5.70
2023-03-19T04:11:51.653Z,4.90
2023-03-19T04:12:51.349Z,4.90
2023-03-19T04:13:51.326Z,5.20
2023-03-19T04:14:51.314Z,5.20
2023-03-19T04:15:51.341Z,5.00
2023-03-19T04:16:51.351Z,5.20
2023-03-19T04:17:51.317Z,4.30
2023-03-19T04:18:51.269Z,4.40
2023-03-19T04:19:51.267Z,4.80
2023-03-19T04:20:51.250Z,5.20
2023-03-19T04:21:51.242Z,5.00
2023-03-19T04:22:51.230Z,4.80
2023-03-19T04:23:51.265Z,5.40
2023-03-19T04:24:51.206Z,5.00
2023-03-19T04:25:51.201Z,4.30
2023-03-19T04:26:51.185Z,4.90
2023-03-19T04:27:51.178Z,4.40
2023-03-19T04:28:51.179Z,6.20
2023-03-19T04:29:51.176Z,4.80
2023-03-19T04:30:51.200Z,5.30
2023-03-19T04:31:51.164Z,4.30
2023-03-19T04:32:51.163Z,4.60
2023-03-19T04:33:51.113Z,4.80
2023-03-19T04:34:51.100Z,4.60
2023-03-19T04:35:51.153Z,4.60
2023-03-19T04:36:51.103Z,4.20
2023-03-19T04:37:51.072Z,4.10
2023-03-19T04:38:51.057Z,4.80
2023-03-19T04:39:51.050Z,4.00
2023-03-19T04:40:51.034Z,4.10
2023-03-19T04:41:51.041Z,4.80
2023-03-19T04:42:51.029Z,4.40
2023-03-19T04:43:51.005Z,4.50
2023-03-19T04:44:50.989Z,5.10
2023-03-19T04:45:51.028Z,4.60
2023-03-19T04:46:50.969Z,4.30
2023-03-19T04:47:51.084Z,4.50
2023-03-19T04:48:50.948Z,4.10
2023-03-19T04:49:50.939Z,4.30
2023-03-19T04:50:50.927Z,4.20
2023-03-19T04:51:50.928Z,4.60
2023-03-19T04:52:50.905Z,4.60
2023-03-19T04:53:50.936Z,5.00
2023-03-19T04:54:50.885Z,4.90
2023-03-19T04:55:50.874Z,5.20
2023-03-19T04:56:50.873Z,4.10
2023-03-19T04:57:50.859Z,4.90
2023-03-19T04:58:50.839Z,4.00
2023-03-19T04:59:50.859Z,4.10
2023-03-19T05:00:50.816Z,3.70
2023-03-19T05:01:50.811Z,3.90
2023-03-19T05:02:50.795Z,4.50
2023-03-19T05:03:51.081Z,3.90
2023-03-19T05:04:50.773Z,4.00
2023-03-19T05:05:50.803Z,4.10
2023-03-19T05:06:50.752Z,3.70
2023-03-19T05:07:50.744Z,4.10
2023-03-19T05:08:50.733Z,4.90
2023-03-19T05:09:50.748Z,4.10
2023-03-19T05:10:50.715Z,4.00
2023-03-19T05:11:50.732Z,4.00
2023-03-19T05:12:50.689Z,4.40
2023-03-19T05:13:50.691Z,5.10
2023-03-19T05:14:50.665Z,4.40
2023-03-19T05:15:50.696Z,4.30
2023-03-19T05:16:50.649Z,4.40
2023-03-19T05:17:50.669Z,3.80
2023-03-19T05:18:50.670Z,4.80
2023-03-19T05:19:50.642Z,3.90
2023-03-19T05:20:50.614Z,5.30
2023-03-19T05:21:50.599Z,4.10
2023-03-19T05:22:50.580Z,3.80
2023-03-19T05:23:50.598Z,3.80
2023-03-19T05:24:50.558Z,4.00
2023-03-19T05:25:50.564Z,3.80
2023-03-19T05:26:50.553Z,3.90
2023-03-19T05:27:50.542Z,4.00
2023-03-19T05:28:50.531Z,4.30
2023-03-19T05:29:50.543Z,4.00
2023-03-19T05:30:50.521Z,3.80
2023-03-19T05:31:50.500Z,3.90
2023-03-19T05:32:50.513Z,4.60
2023-03-19T05:33:50.464Z,3.90
2023-03-19T05:34:50.449Z,4.20
2023-03-19T05:35:50.505Z,4.10
2023-03-19T05:36:50.435Z,4.70
2023-03-19T05:37:50.448Z,4.30
2023-03-19T05:38:50.409Z,5.20
2023-03-19T05:39:50.401Z,4.60
2023-03-19T05:40:50.385Z,5.30
2023-03-19T05:41:50.387Z,4.30
2023-03-19T05:42:50.376Z,4.30
2023-03-19T05:43:50.355Z,4.80
2023-03-19T05:44:50.343Z,5.40
2023-03-19T05:45:50.343Z,4.90
2023-03-19T05:46:50.381Z,4.20
2023-03-19T05:47:50.376Z,5.00
2023-03-19T05:48:50.322Z,4.30
2023-03-19T05:49:50.292Z,4.30
2023-03-19T05:50:50.277Z,4.60
2023-03-19T05:51:50.290Z,4.10
2023-03-19T05:52:50.258Z,4.80
2023-03-19T05:53:50.273Z,4.30
2023-03-19T05:54:50.232Z,4.40
2023-03-19T05:55:50.229Z,4.00
2023-03-19T05:56:50.212Z,4.40
2023-03-19T05:57:50.205Z,4.20
2023-03-19T05:58:50.211Z,3.90
2023-03-19T05:59:50.198Z,4.50
2023-03-19T06:00:50.179Z,4.20
2023-03-19T06:01:50.204Z,3.90
2023-03-19T06:02:50.200Z,4.10
2023-03-19T06:03:50.238Z,3.70
2023-03-19T06:04:50.125Z,3.70
2023-03-19T06:05:50.139Z,3.80
2023-03-19T06:06:50.113Z,3.70
2023-03-19T06:07:50.116Z,4.00
2023-03-19T06:08:50.081Z,5.50
2023-03-19T06:09:50.082Z,4.90
2023-03-19T06:10:50.074Z,5.00
2023-03-19T06:11:50.066Z,4.00
2023-03-19T06:12:50.046Z,4.70
2023-03-19T06:13:50.073Z,4.00
2023-03-19T06:14:50.084Z,4.50
2023-03-19T06:15:50.101Z,4.30
2023-03-19T06:16:50.040Z,4.20
2023-03-19T06:17:50.052Z,5.90
2023-03-19T06:18:49.973Z,4.40
2023-03-19T06:19:49.962Z,4.00
2023-03-19T06:20:49.951Z,4.10
2023-03-19T06:21:49.942Z,3.50
2023-03-19T06:22:49.945Z,4.00
2023-03-19T06:23:49.945Z,4.80
2023-03-19T06:24:49.913Z,3.60
2023-03-19T06:25:49.897Z,4.20
2023-03-19T06:26:49.885Z,4.00
2023-03-19T06:27:49.878Z,3.90
2023-03-19T06:28:49.891Z,4.00
2023-03-19T06:29:49.885Z,4.20
2023-03-19T06:30:49.843Z,3.40
2023-03-19T06:31:49.881Z,3.70
2023-03-19T06:32:49.876Z,3.30
2023-03-19T06:33:49.817Z,3.30
2023-03-19T06:34:49.813Z,3.70
2023-03-19T06:35:49.836Z,4.30
2023-03-19T06:36:49.785Z,3.80
2023-03-19T06:37:49.780Z,4.00
2023-03-19T06:38:49.770Z,3.60
2023-03-19T06:39:49.778Z,3.50
2023-03-19T06:40:49.738Z,4.20
2023-03-19T06:41:49.747Z,4.40
2023-03-19T06:42:49.719Z,3.60
2023-03-19T06:43:49.710Z,3.60
2023-03-19T06:44:52.315Z,3.60
2023-03-19T06:45:49.781Z,4.10
2023-03-19T06:46:49.681Z,3.90
2023-03-19T06:47:51.690Z,4.30
2023-03-19T06:48:49.670Z,4.40
2023-03-19T06:49:49.660Z,3.60
2023-03-19T06:50:49.635Z,3.40
2023-03-19T06:51:49.629Z,3.50
2023-03-19T06:52:49.613Z,4.50
2023-03-19T06:53:49.638Z,3.80
2023-03-19T06:54:49.592Z,3.90
2023-03-19T06:55:49.605Z,3.70
2023-03-19T06:56:49.568Z,3.60
2023-03-19T06:57:49.564Z,3.90
2023-03-19T06:58:49.546Z,3.70
2023-03-19T06:59:49.569Z,4.00
2023-03-19T07:00:49.534Z,3.90
2023-03-19T07:01:49.518Z,3.90
2023-03-19T07:02:49.536Z,3.30
2023-03-19T07:03:49.526Z,3.70
2023-03-19T07:04:49.478Z,4.00
2023-03-19T07:05:49.484Z,3.30
2023-03-19T07:06:49.462Z,4.10
2023-03-19T07:07:49.450Z,4.60
2023-03-19T07:08:49.449Z,3.60
2023-03-19T07:09:49.425Z,3.30
2023-03-19T07:10:49.429Z,3.20
2023-03-19T07:11:49.440Z,3.70
2023-03-19T07:12:49.397Z,5.10
2023-03-19T07:13:49.379Z,2.70
2023-03-19T07:14:49.381Z,3.10
2023-03-19T07:15:49.359Z,4.30
2023-03-19T07:16:49.420Z,3.10
2023-03-19T07:17:49.358Z,2.90
2023-03-19T07:18:49.329Z,3.40
2023-03-19T07:19:49.330Z,3.00
2023-03-19T07:20:49.313Z,4.30
2023-03-19T07:21:49.294Z,4.20
2023-03-19T07:22:49.289Z,3.40
2023-03-19T07:23:49.297Z,3.10
2023-03-19T07:24:49.267Z,3.40
2023-03-19T07:25:49.263Z,4.20
2023-03-19T07:26:49.250Z,4.60
2023-03-19T07:27:49.248Z,4.50
2023-03-19T07:28:49.218Z,4.30
2023-03-19T07:29:49.233Z,5.20
2023-03-19T07:30:49.213Z,7.00
2023-03-19T07:31:49.238Z,4.20
2023-03-19T07:32:49.202Z,6.20
2023-03-19T07:33:49.166Z,4.70
2023-03-19T07:34:49.162Z,5.20
2023-03-19T07:35:49.206Z,3.60
2023-03-19T07:36:49.149Z,4.10
2023-03-19T07:37:49.119Z,4.50
2023-03-19T07:38:49.124Z,4.70
2023-03-19T07:39:49.105Z,5.40
2023-03-19T07:41:01.413Z,4.80
2023-03-19T07:41:50.088Z,5.00
2023-03-19T07:42:49.070Z,5.00
2023-03-19T07:43:49.089Z,5.50
2023-03-19T07:44:49.052Z,4.30
2023-03-19T07:45:49.077Z,4.70
2023-03-19T07:46:49.023Z,5.10
2023-03-19T07:47:50.339Z,5.40
2023-03-19T07:48:49.004Z,5.30
2023-03-19T07:49:49.000Z,4.50
2023-03-19T07:50:49.002Z,4.70
2023-03-19T07:51:49.009Z,5.20
2023-03-19T07:52:49.112Z,5.90
2023-03-19T07:53:49.022Z,5.80
2023-03-19T07:54:48.940Z,5.20
2023-03-19T07:55:49.118Z,4.90
2023-03-19T07:56:48.914Z,5.50
2023-03-19T07:57:48.902Z,5.70
2023-03-19T07:58:48.929Z,6.20
2023-03-19T07:59:49.203Z,5.70
2023-03-19T08:00:48.907Z,5.70
2023-03-19T08:01:48.924Z,6.10
2023-03-19T08:02:48.885Z,6.90
2023-03-19T08:03:48.837Z,7.80
2023-03-19T08:04:48.873Z,7.30
2023-03-19T08:05:48.827Z,6.10
2023-03-19T08:06:48.803Z,6.40
2023-03-19T08:07:48.805Z,6.80
2023-03-19T08:08:48.783Z,6.70
2023-03-19T08:09:48.768Z,6.20
2023-03-19T08:10:48.772Z,6.10
2023-03-19T08:11:48.760Z,5.80
2023-03-19T08:12:48.749Z,5.80
2023-03-19T08:13:48.734Z,5.70
2023-03-19T08:14:48.719Z,5.50
2023-03-19T08:15:48.740Z,5.60
2023-03-19T08:16:48.737Z,6.60
2023-03-19T08:17:48.693Z,6.50
2023-03-19T08:18:50.288Z,7.40
2023-03-19T08:19:48.659Z,6.10
2023-03-19T08:20:48.658Z,6.80
2023-03-19T08:21:48.637Z,6.50
2023-03-19T08:22:48.647Z,5.80
2023-03-19T08:23:48.637Z,6.50
2023-03-19T08:24:48.681Z,6.30
2023-03-19T08:25:48.613Z,6.20
2023-03-19T08:26:48.627Z,6.10
2023-03-19T08:27:48.572Z,5.80
2023-03-19T08:28:48.566Z,6.30
2023-03-19T08:29:48.565Z,6.30
2023-03-19T08:30:48.559Z,6.20
2023-03-19T08:31:48.569Z,6.60
2023-03-19T08:32:48.553Z,7.10
2023-03-19T08:33:48.505Z,6.30
2023-03-19T08:34:49.741Z,7.10
2023-03-19T08:35:48.515Z,6.10
2023-03-19T08:36:48.476Z,6.60
2023-03-19T08:37:48.477Z,6.40
2023-03-19T08:38:48.452Z,5.30
2023-03-19T08:39:48.439Z,6.00
2023-03-19T08:40:48.452Z,5.00
2023-03-19T08:41:48.433Z,5.70
2023-03-19T08:42:48.411Z,5.50
2023-03-19T08:43:48.406Z,5.80
2023-03-19T08:44:48.388Z,6.50
2023-03-19T08:45:48.377Z,6.40
2023-03-19T08:46:48.403Z,6.40
2023-03-19T08:47:48.376Z,6.20
2023-03-19T08:48:48.344Z,5.90
2023-03-19T08:49:48.330Z,6.50
2023-03-19T08:50:48.322Z,5.50
2023-03-19T08:51:48.489Z,6.40
2023-03-19T08:52:48.323Z,6.00
2023-03-19T08:53:48.289Z,6.00
2023-03-19T08:54:48.289Z,5.70
2023-03-19T08:55:48.276Z,6.70
2023-03-19T08:56:48.257Z,5.90
2023-03-19T08:57:48.251Z,6.30
2023-03-19T08:58:48.248Z,6.10
2023-03-19T08:59:48.233Z,6.40
2023-03-19T09:00:48.215Z,6.40
2023-03-19T09:01:48.254Z,6.40
2023-03-19T09:02:48.204Z,6.30
2023-03-19T09:03:48.233Z,6.60
2023-03-19T09:04:48.208Z,5.70
2023-03-19T09:05:48.170Z,5.90
2023-03-19T09:06:48.149Z,6.00
2023-03-19T09:07:48.139Z,6.40
2023-03-19T09:08:48.128Z,6.10
2023-03-19T09:09:48.113Z,6.30
2023-03-19T09:10:49.864Z,6.40
2023-03-19T09:11:48.118Z,6.80
2023-03-19T09:12:48.672Z,5.80
2023-03-19T09:13:48.084Z,6.40
2023-03-19T09:14:48.062Z,6.40
2023-03-19T09:15:48.062Z,6.40
2023-03-19T09:16:48.107Z,6.80
2023-03-19T09:17:48.025Z,5.30
2023-03-19T09:18:48.014Z,6.10
2023-03-19T09:19:48.026Z,5.60
2023-03-19T09:20:47.992Z,5.90
2023-03-19T09:21:48.045Z,5.60
2023-03-19T09:22:48.010Z,5.50
2023-03-19T09:23:47.969Z,6.70
2023-03-19T09:24:47.951Z,5.70
2023-03-19T09:25:47.935Z,6.00
2023-03-19T09:26:47.929Z,6.60
2023-03-19T09:27:47.914Z,6.40
2023-03-19T09:28:47.957Z,6.10
2023-03-19T09:29:47.917Z,5.40
2023-03-19T09:30:47.884Z,5.20
2023-03-19T09:31:47.913Z,5.30
2023-03-19T09:32:47.891Z,5.90
2023-03-19T09:33:47.848Z,5.70
2023-03-19T09:34:47.862Z,5.60
2023-03-19T09:35:47.941Z,5.30
2023-03-19T09:36:47.816Z,6.10
2023-03-19T09:37:47.816Z,4.80
2023-03-19T09:38:47.805Z,6.30
2023-03-19T09:39:47.787Z,5.00
2023-03-19T09:40:47.777Z,5.20
2023-03-19T09:41:47.762Z,4.90
2023-03-19T09:42:47.756Z,5.60
2023-03-19T09:43:47.755Z,5.60
2023-03-19T09:44:47.734Z,5.40
2023-03-19T09:45:47.717Z,5.90
2023-03-19T09:46:47.791Z,4.90
2023-03-19T09:47:47.695Z,5.80
2023-03-19T09:48:47.690Z,5.00
2023-03-19T09:49:47.695Z,5.70
2023-03-19T09:50:47.677Z,5.10
2023-03-19T09:51:47.675Z,5.50
2023-03-19T09:52:47.643Z,5.30
2023-03-19T09:53:47.638Z,5.10
2023-03-19T09:54:47.633Z,5.40
2023-03-19T09:55:47.612Z,5.30
2023-03-19T09:56:47.612Z,5.60
2023-03-19T09:57:47.614Z,6.00
2023-03-19T09:58:47.582Z,4.70
2023-03-19T09:59:47.577Z,5.10
2023-03-19T10:00:47.560Z,5.00
2023-03-19T10:01:47.628Z,6.50
2023-03-19T10:02:47.539Z,5.40
2023-03-19T10:03:47.592Z,6.40
2023-03-19T10:04:47.533Z,5.70
2023-03-19T10:05:47.500Z,5.80
2023-03-19T10:06:47.490Z,5.80
2023-03-19T10:07:47.517Z,6.50
2023-03-19T10:08:47.470Z,6.00
2023-03-19T10:09:47.454Z,5.60
2023-03-19T10:10:47.456Z,6.20
2023-03-19T10:11:47.433Z,5.80
2023-03-19T10:12:47.460Z,5.30
2023-03-19T10:13:47.414Z,5.10
2023-03-19T10:14:47.404Z,4.90
2023-03-19T10:15:47.391Z,5.30
2023-03-19T10:16:47.391Z,5.80
2023-03-19T10:17:47.381Z,4.90
2023-03-19T10:18:47.767Z,4.50
2023-03-19T10:19:47.355Z,5.40
2023-03-19T10:20:47.338Z,5.10
2023-03-19T10:21:47.326Z,5.60
2023-03-19T10:22:47.341Z,4.60
2023-03-19T10:23:48.741Z,4.40
2023-03-19T10:24:47.304Z,4.80
2023-03-19T10:25:47.341Z,4.80
2023-03-19T10:26:47.272Z,4.50
2023-03-19T10:27:47.281Z,5.40
2023-03-19T10:28:47.251Z,6.80
2023-03-19T10:29:47.291Z,5.10
2023-03-19T10:30:47.229Z,5.30
2023-03-19T10:31:47.266Z,5.20
2023-03-19T10:32:47.268Z,4.90
2023-03-19T10:33:47.204Z,5.30
2023-03-19T10:34:47.191Z,5.80
2023-03-19T10:35:47.326Z,4.90
2023-03-19T10:36:47.167Z,5.30
2023-03-19T10:37:47.150Z,5.00
2023-03-19T10:38:47.144Z,5.30
2023-03-19T10:39:47.161Z,5.50
2023-03-19T10:40:47.125Z,6.10
2023-03-19T10:41:47.158Z,4.80
2023-03-19T10:42:47.104Z,4.80
2023-03-19T10:43:47.088Z,5.00
2023-03-19T10:44:47.084Z,4.50
2023-03-19T10:45:47.275Z,4.70
2023-03-19T10:46:47.069Z,4.40
2023-03-19T10:47:47.076Z,4.30
2023-03-19T10:48:47.056Z,4.20
2023-03-19T10:49:47.024Z,4.50
2023-03-19T10:50:47.020Z,4.50
2023-03-19T10:51:47.005Z,5.80
2023-03-19T10:52:47.016Z,4.60
2023-03-19T10:53:47.001Z,4.30
2023-03-19T10:54:46.974Z,4.80
2023-03-19T10:55:46.990Z,4.50
2023-03-19T10:56:46.969Z,4.10
2023-03-19T10:57:46.945Z,5.30
2023-03-19T10:58:46.943Z,5.10
2023-03-19T10:59:46.922Z,5.10
2023-03-19T11:00:46.926Z,4.20
2023-03-19T11:01:46.948Z,4.30
2023-03-19T11:02:46.890Z,4.40
2023-03-19T11:03:46.950Z,4.50
2023-03-19T11:04:46.866Z,5.00
2023-03-19T11:05:46.853Z,5.30
2023-03-19T11:06:46.853Z,5.10
2023-03-19T11:07:46.885Z,4.20
2023-03-19T11:08:46.823Z,6.00
2023-03-19T11:09:46.830Z,4.50
2023-03-19T11:10:46.804Z,4.40
2023-03-19T11:11:49.117Z,4.70
2023-03-19T11:12:46.780Z,5.70
2023-03-19T11:13:46.773Z,4.30
2023-03-19T11:14:46.760Z,5.40
2023-03-19T11:15:46.758Z,5.20
2023-03-19T11:16:46.753Z,4.50
2023-03-19T11:17:46.720Z,4.60
2023-03-19T11:18:46.724Z,4.60
2023-03-19T11:19:46.710Z,4.30
2023-03-19T11:20:46.693Z,4.40
2023-03-19T11:21:46.679Z,4.30
2023-03-19T11:22:46.666Z,4.20
2023-03-19T11:23:46.660Z,4.40
2023-03-19T11:24:46.653Z,4.40
2023-03-19T11:25:46.652Z,4.40
2023-03-19T11:26:46.619Z,3.80
2023-03-19T11:27:46.633Z,4.10
2023-03-19T11:28:46.597Z,5.50
2023-03-19T11:29:46.588Z,3.80
2023-03-19T11:30:46.585Z,3.50
2023-03-19T11:31:46.648Z,3.40
2023-03-19T11:32:46.681Z,3.30
2023-03-19T11:33:46.559Z,3.40
2023-03-19T11:34:46.545Z,3.50
2023-03-19T11:35:46.542Z,3.50
2023-03-19T11:36:46.509Z,4.00
2023-03-19T11:37:46.514Z,3.30
2023-03-19T11:38:46.495Z,3.60
2023-03-19T11:39:46.477Z,4.20
2023-03-19T11:40:46.470Z,4.60
2023-03-19T11:41:46.466Z,3.80
2023-03-19T11:42:46.452Z,4.70
2023-03-19T11:43:46.462Z,3.60
2023-03-19T11:44:46.430Z,3.90
2023-03-19T11:45:46.572Z,3.10
2023-03-19T11:46:46.402Z,3.90
2023-03-19T11:47:46.389Z,4.20
2023-03-19T11:48:46.386Z,3.40
2023-03-19T11:49:46.389Z,3.70
2023-03-19T11:50:48.256Z,3.40
2023-03-19T11:51:46.343Z,3.50
2023-03-19T11:52:46.331Z,3.60
2023-03-19T11:53:46.336Z,3.60
2023-03-19T11:54:46.312Z,6.80
2023-03-19T11:55:46.352Z,4.10
2023-03-19T11:56:46.314Z,3.60
2023-03-19T11:57:46.316Z,3.00
2023-03-19T11:58:46.265Z,4.40
2023-03-19T11:59:46.278Z,3.00
2023-03-19T12:00:46.243Z,3.80
2023-03-19T12:01:46.264Z,4.30
2023-03-19T12:02:46.252Z,3.40
2023-03-19T12:03:46.263Z,3.20
2023-03-19T12:04:46.197Z,3.20
2023-03-19T12:05:46.258Z,4.00
2023-03-19T12:06:46.186Z,3.60
2023-03-19T12:07:46.191Z,4.00
2023-03-19T12:08:46.155Z,3.80
2023-03-19T12:09:46.148Z,3.40
2023-03-19T12:10:46.150Z,3.60
2023-03-19T12:11:46.126Z,3.00
2023-03-19T12:12:46.110Z,3.80
2023-03-19T12:13:46.117Z,3.40
2023-03-19T12:14:46.087Z,3.50
2023-03-19T12:15:46.192Z,3.10
2023-03-19T12:16:46.696Z,4.20
2023-03-19T12:17:46.086Z,3.30
2023-03-19T12:18:46.054Z,3.80
2023-03-19T12:19:46.140Z,3.80
2023-03-19T12:20:46.024Z,3.30
2023-03-19T12:21:46.014Z,4.90
2023-03-19T12:22:45.999Z,3.60
2023-03-19T12:23:45.992Z,3.20
2023-03-19T12:24:45.986Z,3.40
2023-03-19T12:25:46.027Z,3.50
2023-03-19T12:26:45.960Z,3.40
2023-03-19T12:27:45.961Z,4.40
2023-03-19T12:28:45.932Z,3.30
2023-03-19T12:29:45.931Z,3.50
2023-03-19T12:30:45.948Z,3.70
2023-03-19T12:31:45.937Z,3.30
2023-03-19T12:32:45.949Z,3.60
2023-03-19T12:33:45.881Z,3.70
2023-03-19T12:34:45.862Z,3.80
2023-03-19T12:35:45.877Z,3.70
2023-03-19T12:36:45.854Z,2.90
2023-03-19T12:37:45.852Z,3.80
2023-03-19T12:38:45.846Z,3.50
2023-03-19T12:39:45.819Z,4.20
2023-03-19T12:40:45.798Z,2.90
2023-03-19T12:41:45.784Z,3.80
2023-03-19T12:42:45.787Z,4.50
2023-03-19T12:43:45.787Z,3.80
2023-03-19T12:44:45.752Z,4.30
2023-03-19T12:45:45.748Z,3.60
2023-03-19T12:46:45.798Z,5.00
2023-03-19T12:47:45.754Z,3.00
2023-03-19T12:48:45.724Z,3.10
2023-03-19T12:49:45.721Z,2.90
2023-03-19T12:50:45.682Z,3.10
2023-03-19T12:51:45.674Z,3.40
2023-03-19T12:52:45.658Z,3.10
2023-03-19T12:53:45.652Z,3.20
2023-03-19T12:54:45.637Z,3.10
2023-03-19T12:55:45.652Z,4.30
2023-03-19T12:56:45.635Z,3.30
2023-03-19T12:57:45.609Z,3.50
2023-03-19T12:58:45.595Z,3.20
2023-03-19T12:59:45.605Z,4.00
2023-03-19T13:00:45.571Z,2.90
2023-03-19T13:01:45.700Z,3.00
2023-03-19T13:02:45.575Z,4.00
2023-03-19T13:03:45.561Z,3.60
2023-03-19T13:04:45.543Z,3.70
2023-03-19T13:05:45.531Z,3.40
2023-03-19T13:06:45.503Z,2.90
2023-03-19T13:07:45.512Z,3.30
2023-03-19T13:08:45.482Z,3.70
2023-03-19T13:09:45.488Z,3.40
2023-03-19T13:10:45.459Z,3.60
2023-03-19T13:11:45.452Z,3.70
2023-03-19T13:12:45.435Z,3.60
2023-03-19T13:13:45.441Z,3.40
2023-03-19T13:14:45.414Z,2.80
2023-03-19T13:15:45.457Z,3.90
2023-03-19T13:16:45.410Z,2.80
2023-03-19T13:17:45.382Z,3.30
2023-03-19T13:18:45.371Z,3.10
2023-03-19T13:19:45.394Z,3.40
2023-03-19T13:20:45.356Z,4.60
2023-03-19T13:21:45.345Z,3.30
2023-03-19T13:22:45.334Z,3.30